7TVIL SUMU-SAEZ
Flight info
| Callsign | 7TVIL |
|---|---|
| Flight time | N/A |
| Altitude | 8000 |
| Route | SUMU/01 UGIMI PTA UPOMA |
| Aircraft | C208/L-SDFGR/C |
Departure
| Time | N/A |
|---|---|
| Airport | Carrasco General Cesáreo L. Berisso International Airport (SUMU) |
Arrival
| Time | 2026-04-30 18:21 |
|---|---|
| Airport | Ezeiza International Airport - Ministro Pistarini (SAEZ) |
| Time | Latitude | Longitude | Altitude | Speed | Heading |
|---|---|---|---|---|---|
| 2026-04-30 17:39 | -34.92348 | -56.53988 | 5785 ft | 147 kts | 260° |
| 2026-04-30 17:41 | -34.94076 | -56.64007 | 6765 ft | 153 kts | 259° |
| 2026-04-30 17:42 | -34.94510 | -56.66526 | 7008 ft | 153 kts | 260° |
| 2026-04-30 17:42 | -34.95166 | -56.70342 | 7366 ft | 153 kts | 259° |
| 2026-04-30 17:43 | -34.95600 | -56.72872 | 7607 ft | 152 kts | 259° |
| 2026-04-30 17:44 | -34.96247 | -56.76649 | 7968 ft | 151 kts | 259° |
| 2026-04-30 17:44 | -34.96920 | -56.80585 | 7998 ft | 163 kts | 260° |
| 2026-04-30 17:46 | -34.98087 | -56.87422 | 8003 ft | 166 kts | 260° |
| 2026-04-30 17:47 | -34.98237 | -56.92992 | 8000 ft | 165 kts | 271° |
| 2026-04-30 17:48 | -34.98220 | -56.98599 | 7992 ft | 165 kts | 271° |
| 2026-04-30 17:48 | -34.98281 | -57.02807 | 7989 ft | 166 kts | 265° |
| 2026-04-30 17:49 | -34.98720 | -57.08412 | 7986 ft | 166 kts | 266° |
| 2026-04-30 17:50 | -34.99136 | -57.14015 | 7982 ft | 166 kts | 266° |
| 2026-04-30 17:51 | -34.99447 | -57.18223 | 7977 ft | 166 kts | 266° |
| 2026-04-30 17:52 | -34.99755 | -57.22412 | 7980 ft | 166 kts | 266° |
| 2026-04-30 17:53 | -35.00267 | -57.29439 | 7974 ft | 166 kts | 266° |
| 2026-04-30 17:54 | -35.00674 | -57.35038 | 7972 ft | 164 kts | 267° |
| 2026-04-30 17:55 | -35.01073 | -57.40576 | 7971 ft | 164 kts | 267° |
| 2026-04-30 17:56 | -35.01467 | -57.46096 | 7970 ft | 164 kts | 267° |
| 2026-04-30 17:57 | -35.01763 | -57.50251 | 7969 ft | 163 kts | 267° |
| 2026-04-30 17:58 | -35.02058 | -57.54404 | 7976 ft | 164 kts | 267° |
| 2026-04-30 17:59 | -35.02447 | -57.59965 | 7973 ft | 165 kts | 267° |
| 2026-04-30 18:00 | -35.02836 | -57.65528 | 7969 ft | 164 kts | 268° |
| 2026-04-30 18:00 | -35.03125 | -57.69684 | 7969 ft | 164 kts | 268° |
| 2026-04-30 18:01 | -35.03317 | -57.72442 | 7977 ft | 163 kts | 268° |
| 2026-04-30 18:02 | -35.03603 | -57.76589 | 7978 ft | 163 kts | 268° |
| 2026-04-30 18:02 | -35.03886 | -57.80716 | 7980 ft | 163 kts | 268° |
| 2026-04-30 18:03 | -35.04170 | -57.84872 | 7983 ft | 165 kts | 268° |
| 2026-04-30 18:04 | -35.04453 | -57.89056 | 7975 ft | 165 kts | 268° |
| 2026-04-30 18:05 | -35.04833 | -57.94657 | 7978 ft | 166 kts | 268° |
| 2026-04-30 18:06 | -35.05216 | -58.00353 | 7532 ft | 171 kts | 268° |
| 2026-04-30 18:07 | -35.05600 | -58.06159 | 7042 ft | 172 kts | 268° |
| 2026-04-30 18:08 | -35.05892 | -58.10547 | 6684 ft | 173 kts | 268° |
| 2026-04-30 18:09 | -35.06279 | -58.16389 | 5967 ft | 173 kts | 268° |
| 2026-04-30 18:10 | -35.06662 | -58.22259 | 5165 ft | 173 kts | 269° |
| 2026-04-30 18:11 | -35.07026 | -58.27909 | 4360 ft | 165 kts | 268° |
| 2026-04-30 18:11 | -35.07294 | -58.32065 | 3761 ft | 164 kts | 270° |
| 2026-04-30 18:12 | -35.07563 | -58.36224 | 3180 ft | 163 kts | 270° |
| 2026-04-30 18:13 | -35.07739 | -58.39016 | 2780 ft | 166 kts | 270° |
| 2026-04-30 18:13 | -35.07890 | -58.42778 | 2248 ft | 165 kts | 286° |
| 2026-04-30 18:14 | -35.06328 | -58.44993 | 2143 ft | 142 kts | 341° |
| 2026-04-30 18:15 | -35.03479 | -58.45597 | 2151 ft | 140 kts | 356° |
| 2026-04-30 18:15 | -35.00618 | -58.46474 | 2159 ft | 140 kts | 345° |
| 2026-04-30 18:16 | -34.98715 | -58.47145 | 2154 ft | 142 kts | 344° |
| 2026-04-30 18:16 | -34.96764 | -58.47820 | 2163 ft | 149 kts | 345° |
| 2026-04-30 18:17 | -34.95773 | -58.48165 | 2142 ft | 152 kts | 345° |
| 2026-04-30 18:17 | -34.94783 | -58.48508 | 2145 ft | 146 kts | 345° |
| 2026-04-30 18:17 | -34.92791 | -58.49201 | 2039 ft | 151 kts | 342° |
| 2026-04-30 18:18 | -34.91768 | -58.49558 | 1827 ft | 154 kts | 345° |
| 2026-04-30 18:18 | -34.90738 | -58.49923 | 1620 ft | 155 kts | 345° |
| 2026-04-30 18:18 | -34.89701 | -58.50288 | 1414 ft | 157 kts | 345° |
| 2026-04-30 18:18 | -34.88665 | -58.50651 | 1211 ft | 142 kts | 346° |
| 2026-04-30 18:19 | -34.87811 | -58.50966 | 1022 ft | 117 kts | 347° |
| 2026-04-30 18:19 | -34.87068 | -58.51223 | 877 ft | 105 kts | 347° |
| 2026-04-30 18:19 | -34.86380 | -58.51463 | 738 ft | 100 kts | 346° |
| 2026-04-30 18:19 | -34.85733 | -58.51681 | 605 ft | 93 kts | 346° |
| 2026-04-30 18:20 | -34.85151 | -58.51892 | 482 ft | 84 kts | 342° |
| 2026-04-30 18:20 | -34.84593 | -58.52118 | 354 ft | 84 kts | 343° |
| 2026-04-30 18:20 | -34.84044 | -58.52290 | 280 ft | 85 kts | 347° |
| 2026-04-30 18:20 | -34.83489 | -58.52472 | 165 ft | 80 kts | 344° |
| 2026-04-30 18:21 | -34.82970 | -58.52664 | 82 ft | 74 kts | 342° |
| 2026-04-30 18:21 | -34.82498 | -58.52825 | 65 ft | 66 kts | 344° |
| 2026-04-30 18:21 | -34.82076 | -58.52967 | 71 ft | 61 kts | 343° |
| 2026-04-30 18:21 | -34.81726 | -58.53084 | 70 ft | 48 kts | 345° |
| 2026-04-30 18:22 | -34.81405 | -58.53190 | 66 ft | 45 kts | 340° |
| 2026-04-30 18:22 | -34.81157 | -58.53289 | 68 ft | 27 kts | 343° |
| 2026-04-30 18:22 | -34.80950 | -58.53364 | 72 ft | 28 kts | 344° |
| 2026-04-30 18:23 | -34.80872 | -58.53427 | 71 ft | 6 kts | 281° |
| 2026-04-30 18:23 | -34.80874 | -58.53466 | 70 ft | 5 kts | 260° |
| 2026-04-30 18:23 | -34.80888 | -58.53542 | 65 ft | 15 kts | 257° |
| 2026-04-30 18:23 | -34.80859 | -58.53638 | 69 ft | 10 kts | 314° |
| 2026-04-30 18:24 | -34.80788 | -58.53668 | 70 ft | 5 kts | 347° |
| 2026-04-30 18:24 | -34.80714 | -58.53686 | 70 ft | 17 kts | 348° |
| 2026-04-30 18:24 | -34.80560 | -58.53733 | 70 ft | 28 kts | 348° |
| 2026-04-30 18:25 | -34.80348 | -58.53658 | 64 ft | 37 kts | 44° |
| 2026-04-30 18:25 | -34.80040 | -58.53286 | 65 ft | 27 kts | 47° |
| 2026-04-30 18:25 | -34.79990 | -58.53129 | 70 ft | 10 kts | 28° |
| 2026-04-30 18:26 | -34.79959 | -58.53142 | 70 ft | 10 kts | 359° |
| 2026-04-30 18:26 | -34.79948 | -58.53130 | 68 ft | 0 kts | 58° |